Time;durP1;ratioP1;P1;durP2;ratioP2;P2;SDS_P1;SDS_P2;PMS_P1;PMS_P2;Temp;Humidity;BMP_temperature;BMP_pressure;BME280_temperature;BME280_humidity;BME280_pressure;Samples;Min_cycle;Max_cycle;Signal;HPM_P1;HPM_P2
2021/03/27 00:00:18;;;;;;;8.60;1.77;;;;;;;;;;5074595;28;20028;-79
2021/03/27 00:02:48;;;;;;;9.23;1.60;;;;;;;;;;5074817;28;20017;-79
2021/03/27 00:05:18;;;;;;;2.97;1.33;;;;;;;;;;5074747;28;20024;-79
2021/03/27 00:07:49;;;;;;;4.17;1.40;;;;;;;;;;5073084;28;20115;-79
2021/03/27 00:10:20;;;;;;;4.43;1.10;;;;;;;;;;5074617;28;20030;-79
2021/03/27 00:12:52;;;;;;;6.90;1.50;;;;;;;;;;5073122;28;20024;-79
2021/03/27 00:15:19;;;;;;;4.07;1.20;;;;;;;;;;5074369;28;20024;-79
2021/03/27 00:17:48;;;;;;;6.93;1.83;;;;;;;;;;5072395;28;20553;-79
2021/03/27 00:20:24;;;;;;;6.77;1.60;;;;;;;;;;5073124;28;20032;-79
2021/03/27 00:22:52;;;;;;;7.00;1.57;;;;;;;;;;5072845;28;20298;-79
2021/03/27 00:25:29;;;;;;;5.27;1.43;;;;;;;;;;5074370;28;20028;-79
2021/03/27 00:28:00;;;;;;;5.13;1.63;;;;;;;;;;5072333;28;20421;-79
2021/03/27 00:30:29;;;;;;;8.65;1.60;;;;;;;;;;5066920;28;20025;-79
2021/03/27 00:32:56;;;;;;;10.50;1.83;;;;;;;;;;5067635;28;20032;-79
2021/03/27 00:35:25;;;;;;;8.23;1.33;;;;;;;;;;5074214;28;20032;-79
2021/03/27 00:37:50;;;;;;;9.53;1.90;;;;;;;;;;5072842;28;20025;-79
2021/03/27 00:40:17;;;;;;;6.03;1.60;;;;;;;;;;5073988;28;20372;-79
2021/03/27 00:42:44;;;;;;;9.83;1.80;;;;;;;;;;5074207;28;20034;-79
2021/03/27 00:45:16;;;;;;;7.20;1.73;;;;;;;;;;5074017;28;20020;-79
2021/03/27 00:47:43;;;;;;;6.73;1.70;;;;;;;;;;5074036;28;20020;-79
2021/03/27 00:50:27;;;;;;;6.53;1.60;;;;;;;;;;5073574;28;20503;-79
2021/03/27 00:52:55;;;;;;;10.73;2.27;;;;;;;;;;5073854;28;20021;-79
2021/03/27 00:55:23;;;;;;;10.00;2.20;;;;;;;;;;5073707;28;20073;-79
2021/03/27 00:57:55;;;;;;;11.13;2.97;;;;;;;;;;5073722;28;20024;-79
2021/03/27 01:00:23;;;;;;;9.33;2.30;;;;;;;;;;5073689;28;20039;-79
2021/03/27 01:02:51;;;;;;;6.57;2.40;;;;;;;;;;5072455;28;20032;-79
2021/03/27 01:05:18;;;;;;;10.03;2.40;;;;;;;;;;5072211;28;20025;-79
2021/03/27 01:07:44;;;;;;;10.63;3.10;;;;;;;;;;5072608;28;20020;-79
2021/03/27 01:10:18;;;;;;;7.33;2.70;;;;;;;;;;5072355;28;20111;-79
2021/03/27 01:12:44;;;;;;;6.80;2.67;;;;;;;;;;5073283;28;20033;-79
2021/03/27 01:15:10;;;;;;;13.03;3.10;;;;;;;;;;5073588;28;20028;-79
2021/03/27 01:17:37;;;;;;;14.10;2.80;;;;;;;;;;5073200;28;20085;-79
2021/03/27 01:20:08;;;;;;;8.70;2.60;;;;;;;;;;5073469;28;20033;-79
2021/03/27 01:22:34;;;;;;;11.03;2.87;;;;;;;;;;5072190;28;20028;-79
2021/03/27 01:25:00;;;;;;;8.80;2.50;;;;;;;;;;5073273;28;20046;-79
2021/03/27 01:27:28;;;;;;;11.27;2.83;;;;;;;;;;5072060;28;20056;-79
2021/03/27 01:29:53;;;;;;;10.80;2.77;;;;;;;;;;5073142;28;20016;-79
2021/03/27 01:32:21;;;;;;;8.24;2.40;;;;;;;;;;5071335;28;20025;-79
2021/03/27 01:35:06;;;;;;;14.87;3.83;;;;;;;;;;5072911;28;20048;-79
2021/03/27 01:37:39;;;;;;;12.10;3.27;;;;;;;;;;5071400;28;20036;-79
2021/03/27 01:40:14;;;;;;;16.47;3.50;;;;;;;;;;5072886;28;20023;-79
2021/03/27 01:42:45;;;;;;;11.10;2.53;;;;;;;;;;5071755;28;20023;-79
2021/03/27 01:45:29;;;;;;;10.70;2.80;;;;;;;;;;5071435;28;20482;-79
2021/03/27 01:48:13;;;;;;;14.77;3.40;;;;;;;;;;5072757;28;20044;-79
2021/03/27 01:50:44;;;;;;;11.40;2.80;;;;;;;;;;5073179;28;20093;-79
2021/03/27 01:53:09;;;;;;;7.87;2.23;;;;;;;;;;5071485;28;20020;-79
2021/03/27 01:55:34;;;;;;;13.12;2.36;;;;;;;;;;5072702;28;20089;-79
2021/03/27 01:58:18;;;;;;;10.70;3.00;;;;;;;;;;5070904;28;20027;-79
2021/03/27 02:00:50;;;;;;;7.73;2.17;;;;;;;;;;5072312;28;20013;-79
2021/03/27 02:03:30;;;;;;;11.32;2.53;;;;;;;;;;5072563;28;20027;-79
2021/03/27 02:05:58;;;;;;;18.30;3.07;;;;;;;;;;5072123;28;20028;-79
2021/03/27 02:08:38;;;;;;;17.43;2.63;;;;;;;;;;5070986;28;20077;-79
2021/03/27 02:11:22;;;;;;;13.47;3.20;;;;;;;;;;5072482;28;20020;-79
2021/03/27 02:13:56;;;;;;;11.87;2.50;;;;;;;;;;5072191;28;20016;-79
2021/03/27 02:16:24;;;;;;;7.97;2.23;;;;;;;;;;5070684;28;20017;-79
2021/03/27 02:19:00;;;;;;;12.30;2.80;;;;;;;;;;5071354;28;20108;-79
2021/03/27 02:21:40;;;;;;;12.10;2.03;;;;;;;;;;5070365;28;20028;-79
2021/03/27 02:24:09;;;;;;;19.37;2.67;;;;;;;;;;5070765;28;20054;-79
2021/03/27 02:26:40;;;;;;;11.97;2.17;;;;;;;;;;5070126;28;20020;-79
2021/03/27 02:29:27;;;;;;;6.83;1.93;;;;;;;;;;5072292;28;20024;-79
2021/03/27 02:31:55;;;;;;;14.80;2.50;;;;;;;;;;5071206;28;20013;-79
2021/03/27 02:34:28;;;;;;;16.03;2.20;;;;;;;;;;5071221;28;20020;-79
2021/03/27 02:36:56;;;;;;;7.73;1.90;;;;;;;;;;5070768;28;20012;-79
2021/03/27 02:39:24;;;;;;;9.80;2.00;;;;;;;;;;5072379;28;20104;-79
2021/03/27 02:41:53;;;;;;;13.17;2.90;;;;;;;;;;5072200;28;20024;-79
2021/03/27 02:44:18;;;;;;;15.43;2.10;;;;;;;;;;5072305;28;20071;-79
2021/03/27 02:46:44;;;;;;;20.17;2.50;;;;;;;;;;5072074;28;20017;-79
2021/03/27 02:49:24;;;;;;;19.57;2.50;;;;;;;;;;5072271;28;20031;-79
2021/03/27 02:52:03;;;;;;;17.30;2.73;;;;;;;;;;5070463;28;20074;-79
2021/03/27 02:54:40;;;;;;;19.73;2.20;;;;;;;;;;5070869;28;20032;-79
2021/03/27 02:57:26;;;;;;;16.30;2.37;;;;;;;;;;5072043;28;20028;-79
2021/03/27 03:00:10;;;;;;;12.50;2.03;;;;;;;;;;5066823;28;20655;-79
2021/03/27 03:02:57;;;;;;;14.33;2.30;;;;;;;;;;5070912;28;20032;-79
2021/03/27 03:05:28;;;;;;;20.30;3.40;;;;;;;;;;5070423;28;20463;-79
2021/03/27 03:08:12;;;;;;;15.83;2.10;;;;;;;;;;5070598;28;20032;-79
2021/03/27 03:10:41;;;;;;;11.20;1.83;;;;;;;;;;5071810;28;20040;-79
2021/03/27 03:13:18;;;;;;;17.60;2.60;;;;;;;;;;5071909;28;20032;-79
2021/03/27 03:16:02;;;;;;;17.13;2.10;;;;;;;;;;5071983;28;20452;-79
2021/03/27 03:18:31;;;;;;;16.80;2.23;;;;;;;;;;5071726;28;20028;-79
2021/03/27 03:20:58;;;;;;;15.13;2.60;;;;;;;;;;5071752;28;20036;-79
2021/03/27 03:23:37;;;;;;;17.93;2.50;;;;;;;;;;5063206;28;20025;-79
2021/03/27 03:26:20;;;;;;;29.10;3.37;;;;;;;;;;5070311;28;20028;-79
2021/03/27 03:29:03;;;;;;;17.47;1.87;;;;;;;;;;5071913;28;20368;-79
2021/03/27 03:31:29;;;;;;;20.37;2.97;;;;;;;;;;5074648;28;20016;-79
2021/03/27 03:34:06;;;;;;;18.37;2.70;;;;;;;;;;5074051;28;20023;-79
2021/03/27 03:36:42;;;;;;;19.37;2.30;;;;;;;;;;5075588;28;20025;-79
2021/03/27 03:39:13;;;;;;;11.30;1.87;;;;;;;;;;5075260;28;20016;-79
2021/03/27 03:41:55;;;;;;;14.67;1.97;;;;;;;;;;5074153;28;20036;-79
2021/03/27 03:44:35;;;;;;;17.65;2.50;;;;;;;;;;5073827;28;20020;-79
2021/03/27 03:47:19;;;;;;;21.07;3.23;;;;;;;;;;5075381;28;20064;-79
2021/03/27 03:49:59;;;;;;;22.87;3.40;;;;;;;;;;5075236;28;20039;-79
2021/03/27 03:52:59;;;;;;;16.33;2.80;;;;;;;;;;5075250;28;20024;-79
2021/03/27 03:55:32;;;;;;;28.33;2.63;;;;;;;;;;5049794;28;20038;-79
2021/03/27 03:58:03;;;;;;;13.67;2.53;;;;;;;;;;5070611;28;20028;-79
2021/03/27 04:00:52;;;;;;;21.87;3.40;;;;;;;;;;5075053;28;20464;-79
2021/03/27 04:03:22;;;;;;;22.73;2.80;;;;;;;;;;5064446;28;20071;-79
2021/03/27 04:05:48;;;;;;;16.77;2.63;;;;;;;;;;5075071;28;20033;-79
2021/03/27 04:08:17;;;;;;;18.30;3.10;;;;;;;;;;5074363;28;20028;-79
2021/03/27 04:10:44;;;;;;;15.70;2.93;;;;;;;;;;5074845;28;20035;-79
2021/03/27 04:13:15;;;;;;;19.20;3.03;;;;;;;;;;5073172;28;20017;-79
2021/03/27 04:15:49;;;;;;;13.27;1.93;;;;;;;;;;5074596;28;20047;-79
2021/03/27 04:18:17;;;;;;;15.63;2.57;;;;;;;;;;5074518;28;20055;-79
2021/03/27 04:20:52;;;;;;;17.70;2.43;;;;;;;;;;5074559;28;20051;-79
2021/03/27 04:23:21;;;;;;;16.47;2.73;;;;;;;;;;5074330;28;20528;-79
2021/03/27 04:26:04;;;;;;;20.83;3.40;;;;;;;;;;5074545;28;20464;-79
2021/03/27 04:29:01;;;;;;;25.77;3.40;;;;;;;;;;5073859;28;20017;-79
2021/03/27 04:31:40;;;;;;;14.80;2.07;;;;;;;;;;5053110;28;20050;-79
2021/03/27 04:34:10;;;;;;;18.00;2.63;;;;;;;;;;5061064;28;20025;-79
2021/03/27 04:36:47;;;;;;;13.73;2.30;;;;;;;;;;5072717;28;20016;-79
2021/03/27 04:39:19;;;;;;;18.17;2.37;;;;;;;;;;5060923;28;20095;-79
2021/03/27 04:42:02;;;;;;;13.38;2.33;;;;;;;;;;5073951;28;20025;-79
2021/03/27 04:44:46;;;;;;;23.63;2.80;;;;;;;;;;5074251;28;20066;-79
2021/03/27 04:47:11;;;;;;;17.70;2.60;;;;;;;;;;5072400;28;20032;-79
2021/03/27 04:49:49;;;;;;;27.23;3.70;;;;;;;;;;5073922;28;20448;-79
2021/03/27 04:52:18;;;;;;;21.90;2.67;;;;;;;;;;5072620;28;20107;-79
2021/03/27 04:55:10;;;;;;;13.97;2.10;;;;;;;;;;5073986;28;20016;-79
2021/03/27 04:57:37;;;;;;;23.20;2.93;;;;;;;;;;5071480;28;20100;-79
2021/03/27 05:00:09;;;;;;;15.20;2.43;;;;;;;;;;5072548;28;20029;-79
2021/03/27 05:02:53;;;;;;;24.53;3.50;;;;;;;;;;5072068;28;20070;-79
2021/03/27 05:05:27;;;;;;;14.80;2.07;;;;;;;;;;5073754;28;20013;-79
2021/03/27 05:08:14;;;;;;;19.33;2.23;;;;;;;;;;5073436;28;20055;-79
2021/03/27 05:10:44;;;;;;;17.77;2.37;;;;;;;;;;5073705;28;20364;-79
2021/03/27 05:13:16;;;;;;;21.57;2.87;;;;;;;;;;5073711;28;20016;-79
2021/03/27 05:15:57;;;;;;;16.27;2.85;;;;;;;;;;5072224;28;20013;-79
2021/03/27 05:18:34;;;;;;;20.93;3.20;;;;;;;;;;5072124;28;20028;-79
2021/03/27 05:21:17;;;;;;;19.03;3.20;;;;;;;;;;5073171;28;20020;-79
2021/03/27 05:23:49;;;;;;;9.93;2.03;;;;;;;;;;5062406;28;20028;-79
2021/03/27 05:26:33;;;;;;;15.52;2.30;;;;;;;;;;5073081;28;20438;-79
2021/03/27 05:29:12;;;;;;;16.23;2.20;;;;;;;;;;5073174;28;20055;-79
2021/03/27 05:31:37;;;;;;;13.93;2.13;;;;;;;;;;5071457;28;20169;-80
2021/03/27 05:34:03;;;;;;;14.63;2.57;;;;;;;;;;5073147;28;20036;-80
2021/03/27 05:36:37;;;;;;;12.80;2.13;;;;;;;;;;5073097;28;20467;-79
2021/03/27 05:39:13;;;;;;;22.83;2.43;;;;;;;;;;5072696;28;20032;-79
2021/03/27 05:41:57;;;;;;;10.90;2.03;;;;;;;;;;5071795;28;20028;-79
2021/03/27 05:44:34;;;;;;;9.73;1.73;;;;;;;;;;5072837;28;20491;-79
2021/03/27 05:47:30;;;;;;;4.57;0.90;;;;;;;;;;5072486;28;20038;-79
2021/03/27 05:50:14;;;;;;;4.77;0.70;;;;;;;;;;5071673;28;20036;-79
2021/03/27 05:52:39;;;;;;;11.73;1.40;;;;;;;;;;5072213;28;20021;-79
2021/03/27 05:55:30;;;;;;;9.13;0.97;;;;;;;;;;5071451;28;20409;-79
2021/03/27 05:58:13;;;;;;;6.10;0.87;;;;;;;;;;5071745;28;20025;-80
2021/03/27 06:01:02;;;;;;;7.33;1.00;;;;;;;;;;5071146;28;20020;-79
2021/03/27 06:03:30;;;;;;;7.73;1.33;;;;;;;;;;5069384;28;20046;-79
2021/03/27 06:06:14;;;;;;;4.20;0.67;;;;;;;;;;5072451;28;20020;-79
2021/03/27 06:08:39;;;;;;;8.27;1.07;;;;;;;;;;5072779;28;20024;-79
2021/03/27 06:11:16;;;;;;;8.20;0.97;;;;;;;;;;5071386;28;20414;-79
2021/03/27 06:13:54;;;;;;;10.47;1.47;;;;;;;;;;5070993;28;20028;-79
2021/03/27 06:16:37;;;;;;;7.60;1.00;;;;;;;;;;5071146;28;20025;-79
2021/03/27 06:19:07;;;;;;;9.20;1.07;;;;;;;;;;5072668;28;20085;-79
2021/03/27 06:21:35;;;;;;;7.30;1.30;;;;;;;;;;5071189;28;20020;-79
2021/03/27 06:24:07;;;;;;;8.60;1.13;;;;;;;;;;5072710;28;20432;-79
2021/03/27 06:26:44;;;;;;;7.20;1.20;;;;;;;;;;5072089;28;20029;-79
2021/03/27 06:29:19;;;;;;;12.33;1.67;;;;;;;;;;5071047;28;20029;-79
2021/03/27 06:31:47;;;;;;;9.47;1.57;;;;;;;;;;5070897;28;20066;-79
2021/03/27 06:34:21;;;;;;;10.07;1.70;;;;;;;;;;5072537;28;20047;-79
2021/03/27 06:36:49;;;;;;;4.83;0.83;;;;;;;;;;5070977;28;20028;-79
2021/03/27 06:39:17;;;;;;;11.30;1.50;;;;;;;;;;5072493;28;20021;-79
2021/03/27 06:42:01;;;;;;;11.23;1.90;;;;;;;;;;5072487;28;20019;-79
2021/03/27 06:44:26;;;;;;;11.37;1.33;;;;;;;;;;5072881;28;20024;-79
2021/03/27 06:46:51;;;;;;;9.83;1.50;;;;;;;;;;5069768;28;20027;-79
2021/03/27 06:49:19;;;;;;;9.10;1.47;;;;;;;;;;5070133;28;20513;-79
2021/03/27 06:52:09;;;;;;;10.57;1.70;;;;;;;;;;5072175;28;20012;-79
2021/03/27 06:54:40;;;;;;;13.27;1.83;;;;;;;;;;5092973;28;20028;-79
2021/03/27 06:57:05;;;;;;;12.93;1.80;;;;;;;;;;5071097;28;20023;-79
2021/03/27 06:59:43;;;;;;;13.25;1.45;;;;;;;;;;5072194;28;20379;-79
2021/03/27 07:02:08;;;;;;;19.10;2.97;;;;;;;;;;5070979;28;20055;-78
2021/03/27 07:04:36;;;;;;;11.33;2.30;;;;;;;;;;5072102;28;20468;-79
2021/03/27 07:07:29;;;;;;;13.93;1.77;;;;;;;;;;5074640;28;20021;-79
2021/03/27 07:10:00;;;;;;;12.13;2.13;;;;;;;;;;5075672;28;20426;-79
2021/03/27 07:12:45;;;;;;;18.53;2.73;;;;;;;;;;5074378;28;20040;-79
2021/03/27 07:15:13;;;;;;;14.67;2.40;;;;;;;;;;5054457;28;20422;-79
2021/03/27 07:17:42;;;;;;;14.57;1.83;;;;;;;;;;5074046;28;20063;-79
2021/03/27 07:20:13;;;;;;;14.97;2.40;;;;;;;;;;5074713;28;20017;-79
2021/03/27 07:22:59;;;;;;;18.57;2.47;;;;;;;;;;5068530;28;20012;-79
2021/03/27 07:25:33;;;;;;;19.67;2.43;;;;;;;;;;5073305;28;20016;-79
2021/03/27 07:27:58;;;;;;;12.67;3.10;;;;;;;;;;5073922;28;20127;-79
2021/03/27 07:30:35;;;;;;;14.30;2.47;;;;;;;;;;5074536;28;20111;-79
2021/03/27 07:33:14;;;;;;;17.83;3.03;;;;;;;;;;5074244;28;20024;-79
2021/03/27 07:36:02;;;;;;;20.20;3.10;;;;;;;;;;5075484;28;20015;-79
2021/03/27 07:38:34;;;;;;;27.07;3.97;;;;;;;;;;5074056;28;20031;-79
2021/03/27 07:41:09;;;;;;;14.95;2.33;;;;;;;;;;5075653;28;20021;-79
2021/03/27 07:44:03;;;;;;;20.30;3.30;;;;;;;;;;5075413;28;20446;-79
2021/03/27 07:46:37;;;;;;;6.60;1.57;;;;;;;;;;5073884;28;20031;-79
2021/03/27 07:49:17;;;;;;;12.17;1.37;;;;;;;;;;5073331;28;20028;-79
2021/03/27 07:51:49;;;;;;;16.53;2.63;;;;;;;;;;5074811;28;20040;-79
2021/03/27 07:54:33;;;;;;;18.37;3.63;;;;;;;;;;5073622;28;20012;-79
2021/03/27 07:57:13;;;;;;;17.67;2.47;;;;;;;;;;5073758;28;20016;-79
2021/03/27 07:59:44;;;;;;;18.73;2.57;;;;;;;;;;5074933;28;20017;-80
2021/03/27 08:02:09;;;;;;;21.27;3.67;;;;;;;;;;5075068;28;20016;-79
2021/03/27 08:04:53;;;;;;;24.23;3.10;;;;;;;;;;5073390;28;20035;-79
2021/03/27 08:07:39;;;;;;;14.03;2.73;;;;;;;;;;5074470;28;20029;-79
2021/03/27 08:10:19;;;;;;;15.33;1.90;;;;;;;;;;5095912;28;20590;-79
2021/03/27 08:12:44;;;;;;;18.87;3.30;;;;;;;;;;5073171;28;20073;-79
2021/03/27 08:15:21;;;;;;;20.86;3.26;;;;;;;;;;5073469;28;20107;-79
2021/03/27 08:18:05;;;;;;;13.53;2.97;;;;;;;;;;5072937;28;20032;-79
2021/03/27 08:20:49;;;;;;;26.33;3.73;;;;;;;;;;5074701;28;20087;-79
2021/03/27 08:23:17;;;;;;;22.77;4.03;;;;;;;;;;5073129;28;20435;-79
2021/03/27 08:25:55;;;;;;;14.47;3.13;;;;;;;;;;5072706;28;20048;-79
2021/03/27 08:28:38;;;;;;;25.77;3.40;;;;;;;;;;5072946;28;20138;-79
2021/03/27 08:31:14;;;;;;;19.57;3.93;;;;;;;;;;5074139;28;20059;-79
2021/03/27 08:33:45;;;;;;;10.73;2.10;;;;;;;;;;5072901;28;20044;-79
2021/03/27 08:36:16;;;;;;;14.23;3.03;;;;;;;;;;5074368;28;20074;-79
2021/03/27 08:38:58;;;;;;;21.40;2.67;;;;;;;;;;5074130;28;20060;-79
2021/03/27 08:41:42;;;;;;;15.93;3.53;;;;;;;;;;5074266;28;20043;-78
2021/03/27 08:44:26;;;;;;;19.53;2.20;;;;;;;;;;5073828;28;20104;-78
2021/03/27 08:47:13;;;;;;;18.20;2.73;;;;;;;;;;5071477;28;20016;-79
2021/03/27 08:49:38;;;;;;;15.60;2.87;;;;;;;;;;5062509;28;20119;-79
2021/03/27 08:52:10;;;;;;;16.10;3.20;;;;;;;;;;5070125;28;20130;-79
2021/03/27 08:54:42;;;;;;;14.05;2.50;;;;;;;;;;5066158;28;20089;-80
2021/03/27 08:57:28;;;;;;;22.63;2.87;;;;;;;;;;5070085;28;20028;-79
2021/03/27 09:00:12;;;;;;;16.70;2.70;;;;;;;;;;5070095;28;20027;-79
2021/03/27 09:02:40;;;;;;;14.03;2.57;;;;;;;;;;5059690;28;20017;-79
2021/03/27 09:05:08;;;;;;;19.23;2.37;;;;;;;;;;5066204;28;20035;-79
2021/03/27 09:07:42;;;;;;;19.63;2.90;;;;;;;;;;5063422;28;20021;-79
2021/03/27 09:10:29;;;;;;;16.43;2.93;;;;;;;;;;5069294;28;20020;-79
2021/03/27 09:12:57;;;;;;;17.67;2.53;;;;;;;;;;5066478;28;20035;-79
2021/03/27 09:15:22;;;;;;;11.60;1.50;;;;;;;;;;5068179;28;20016;-79
2021/03/27 09:18:07;;;;;;;14.13;2.23;;;;;;;;;;5070816;28;20048;-79
2021/03/27 09:20:41;;;;;;;8.57;1.60;;;;;;;;;;5053888;28;20017;-79
2021/03/27 09:23:17;;;;;;;18.93;2.10;;;;;;;;;;5067435;28;20407;-79
2021/03/27 09:26:01;;;;;;;24.60;3.90;;;;;;;;;;5069733;28;20463;-79
2021/03/27 09:28:40;;;;;;;11.70;1.50;;;;;;;;;;5058273;28;20107;-79
2021/03/27 09:31:24;;;;;;;12.27;2.33;;;;;;;;;;5063447;28;20025;-79
2021/03/27 09:33:55;;;;;;;7.70;1.60;;;;;;;;;;5072842;28;20060;-79
2021/03/27 09:36:44;;;;;;;7.13;1.20;;;;;;;;;;5072812;28;20020;-79
2021/03/27 09:39:12;;;;;;;5.23;1.10;;;;;;;;;;5072989;28;20067;-79
2021/03/27 09:41:56;;;;;;;8.67;1.70;;;;;;;;;;5073147;28;20376;-79
2021/03/27 09:44:31;;;;;;;11.80;2.50;;;;;;;;;;5072804;28;20074;-79
2021/03/27 09:47:16;;;;;;;20.10;2.43;;;;;;;;;;5072239;28;20040;-79
2021/03/27 09:50:08;;;;;;;15.00;2.83;;;;;;;;;;5072463;28;20060;-79
2021/03/27 09:52:48;;;;;;;17.37;2.37;;;;;;;;;;5056348;28;20062;-79
2021/03/27 09:55:13;;;;;;;16.70;2.00;;;;;;;;;;5069326;28;20028;-79
2021/03/27 09:57:38;;;;;;;14.18;3.04;;;;;;;;;;5072487;28;20020;-79
2021/03/27 10:00:19;;;;;;;17.33;2.70;;;;;;;;;;5072489;28;20026;-79
2021/03/27 10:02:51;;;;;;;22.03;2.70;;;;;;;;;;5071303;28;20090;-79
2021/03/27 10:05:29;;;;;;;3.15;1.10;;;;;;;;;;5072308;28;20038;-79
2021/03/27 10:08:09;;;;;;;14.73;1.93;;;;;;;;;;5072089;28;20078;-79
2021/03/27 10:10:40;;;;;;;11.50;1.40;;;;;;;;;;5072356;28;20025;-79
2021/03/27 10:13:13;;;;;;;5.13;1.43;;;;;;;;;;5072433;28;20021;-79
2021/03/27 10:15:58;;;;;;;17.53;2.57;;;;;;;;;;5072298;28;20070;-79
2021/03/27 10:18:29;;;;;;;6.33;1.87;;;;;;;;;;5059602;28;20024;-79
2021/03/27 10:20:56;;;;;;;15.83;3.10;;;;;;;;;;5070837;28;20059;-79
2021/03/27 10:23:39;;;;;;;14.57;2.30;;;;;;;;;;5070815;28;20436;-79
2021/03/27 10:26:07;;;;;;;10.67;1.97;;;;;;;;;;5071054;28;20028;-79
2021/03/27 10:28:37;;;;;;;9.77;2.20;;;;;;;;;;5072386;28;20017;-79
2021/03/27 10:31:07;;;;;;;12.67;1.80;;;;;;;;;;5070746;28;20040;-79
2021/03/27 10:33:39;;;;;;;13.37;2.17;;;;;;;;;;5069100;28;20052;-79
2021/03/27 10:36:20;;;;;;;17.03;2.40;;;;;;;;;;5072139;28;20089;-79
2021/03/27 10:38:53;;;;;;;17.73;1.92;;;;;;;;;;5071618;28;20154;-79
2021/03/27 10:41:35;;;;;;;12.73;1.90;;;;;;;;;;5076593;28;20035;-80
2021/03/27 10:44:23;;;;;;;5.00;1.23;;;;;;;;;;5072821;28;20081;-79
2021/03/27 10:47:01;;;;;;;5.97;1.50;;;;;;;;;;5102281;28;20056;-79
2021/03/27 10:49:33;;;;;;;8.57;1.53;;;;;;;;;;5075110;28;20116;-79
2021/03/27 10:52:13;;;;;;;7.07;0.83;;;;;;;;;;5074868;28;20013;-79
2021/03/27 10:54:47;;;;;;;15.57;1.73;;;;;;;;;;5096457;28;20017;-79
2021/03/27 10:57:27;;;;;;;11.20;1.90;;;;;;;;;;5075755;28;20036;-79
2021/03/27 11:00:05;;;;;;;7.93;1.67;;;;;;;;;;5075864;28;20031;-79
2021/03/27 11:02:49;;;;;;;8.23;1.40;;;;;;;;;;5075576;28;20020;-79
2021/03/27 11:05:20;;;;;;;4.27;0.90;;;;;;;;;;5075624;28;20052;-79
2021/03/27 11:08:07;;;;;;;8.67;1.20;;;;;;;;;;5073645;28;20019;-79
2021/03/27 11:10:51;;;;;;;7.43;1.33;;;;;;;;;;5074572;28;20012;-79
2021/03/27 11:13:35;;;;;;;3.03;0.80;;;;;;;;;;5071382;28;20487;-80
2021/03/27 11:16:15;;;;;;;6.10;1.33;;;;;;;;;;5070884;28;20029;-79
2021/03/27 11:18:40;;;;;;;14.13;2.10;;;;;;;;;;5075610;28;20490;-79
2021/03/27 11:21:15;;;;;;;5.86;1.00;;;;;;;;;;5074594;28;20029;-80
2021/03/27 11:23:47;;;;;;;4.13;0.70;;;;;;;;;;5075775;28;20020;-79
2021/03/27 11:26:15;;;;;;;11.75;1.85;;;;;;;;;;5073918;28;20070;-78
2021/03/27 11:28:51;;;;;;;10.77;2.27;;;;;;;;;;5074013;28;20048;-79
2021/03/27 11:31:22;;;;;;;9.10;2.17;;;;;;;;;;5074147;28;20112;-79
2021/03/27 11:33:50;;;;;;;6.73;0.97;;;;;;;;;;5074690;28;20372;-79
2021/03/27 11:36:24;;;;;;;11.15;1.70;;;;;;;;;;5074936;28;20463;-79
2021/03/27 11:38:59;;;;;;;8.17;1.47;;;;;;;;;;5075190;28;20099;-79
2021/03/27 11:41:24;;;;;;;8.43;0.75;;;;;;;;;;5075085;28;20116;-79
2021/03/27 11:43:53;;;;;;;11.82;0.98;;;;;;;;;;5074935;28;20056;-79
2021/03/27 11:46:23;;;;;;;6.00;0.80;;;;;;;;;;5063113;28;20028;-79
2021/03/27 11:48:51;;;;;;;7.93;0.80;;;;;;;;;;5069566;28;20480;-79
2021/03/27 11:51:28;;;;;;;9.52;1.17;;;;;;;;;;5072711;28;20028;-79
2021/03/27 11:53:57;;;;;;;9.75;1.13;;;;;;;;;;5074726;28;20079;-79
2021/03/27 11:56:41;;;;;;;7.93;1.98;;;;;;;;;;5074845;28;20464;-79
2021/03/27 12:02:05;;;;;;;6.65;1.50;;;;;;;;;;5074769;28;20491;-80
2021/03/27 12:04:49;;;;;;;3.90;1.02;;;;;;;;;;5074593;28;20017;-80
2021/03/27 12:07:19;;;;;;;11.03;1.43;;;;;;;;;;5072977;28;20056;-80
2021/03/27 12:09:50;;;;;;;9.70;1.70;;;;;;;;;;5072582;28;20103;-79
2021/03/27 12:12:29;;;;;;;8.43;1.30;;;;;;;;;;5071320;28;20480;-80
2021/03/27 12:15:05;;;;;;;5.07;1.27;;;;;;;;;;5093498;28;20024;-79
2021/03/27 12:17:50;;;;;;;4.63;0.83;;;;;;;;;;5072998;28;20013;-80
2021/03/27 12:20:25;;;;;;;10.23;1.30;;;;;;;;;;5073406;28;20029;-80
2021/03/27 12:22:53;;;;;;;11.73;1.58;;;;;;;;;;5074385;28;20467;-79
2021/03/27 12:25:30;;;;;;;9.32;1.20;;;;;;;;;;5072679;28;20107;-80
2021/03/27 12:27:58;;;;;;;6.72;1.40;;;;;;;;;;5073635;28;20440;-80
2021/03/27 12:30:29;;;;;;;14.75;1.63;;;;;;;;;;5072286;28;20100;-79
2021/03/27 12:33:06;;;;;;;6.47;1.50;;;;;;;;;;5073430;28;20017;-79
2021/03/27 12:35:40;;;;;;;6.90;1.17;;;;;;;;;;5073469;28;20020;-79
2021/03/27 12:38:06;;;;;;;8.23;1.70;;;;;;;;;;5072206;28;20649;-79
2021/03/27 12:40:51;;;;;;;7.93;1.58;;;;;;;;;;5067896;28;20059;-79
2021/03/27 12:43:22;;;;;;;10.68;1.60;;;;;;;;;;5041496;28;20131;-79
2021/03/27 12:46:22;;;;;;;9.65;1.85;;;;;;;;;;5070349;28;20024;-79
2021/03/27 12:49:00;;;;;;;9.07;2.15;;;;;;;;;;5049754;28;20047;-79
2021/03/27 12:51:42;;;;;;;10.02;1.60;;;;;;;;;;5061689;28;20032;-79
2021/03/27 12:54:07;;;;;;;;;;;;;;;;;;5073569;28;20016;-80
2021/03/27 12:56:52;;;;;;;6.60;1.77;;;;;;;;;;5073187;28;20325;-78
2021/03/27 12:59:26;;;;;;;8.43;1.80;;;;;;;;;;5069803;28;20054;-79
2021/03/27 13:01:54;;;;;;;12.45;1.80;;;;;;;;;;5073760;28;20024;-79
2021/03/27 13:04:40;;;;;;;13.57;2.58;;;;;;;;;;5071818;28;20052;-78
2021/03/27 13:07:08;;;;;;;7.05;1.75;;;;;;;;;;5058171;28;20041;-78
2021/03/27 13:09:52;;;;;;;7.00;1.63;;;;;;;;;;5070797;28;20020;-79
2021/03/27 13:12:19;;;;;;;7.97;1.40;;;;;;;;;;5071740;28;20108;-79
2021/03/27 13:14:53;;;;;;;10.93;1.50;;;;;;;;;;5072988;28;20016;-78
2021/03/27 13:17:21;;;;;;;6.80;1.60;;;;;;;;;;5073404;28;20420;-78
2021/03/27 13:19:58;;;;;;;9.60;1.80;;;;;;;;;;5073173;28;20017;-79
2021/03/27 13:22:42;;;;;;;5.47;1.08;;;;;;;;;;5072868;28;20016;-78
2021/03/27 13:25:25;;;;;;;10.13;1.50;;;;;;;;;;5063230;28;20075;-79
2021/03/27 13:28:05;;;;;;;7.97;1.13;;;;;;;;;;5072756;28;20055;-79
2021/03/27 13:30:45;;;;;;;4.85;0.95;;;;;;;;;;5071030;28;20492;-79
2021/03/27 13:33:10;;;;;;;11.20;1.80;;;;;;;;;;5071146;28;20028;-79
2021/03/27 13:35:55;;;;;;;8.28;1.54;;;;;;;;;;5072075;28;20527;-79
2021/03/27 13:38:27;;;;;;;6.30;1.55;;;;;;;;;;5071715;28;20020;-79
2021/03/27 13:40:53;;;;;;;9.73;1.80;;;;;;;;;;5073053;28;20050;-78
2021/03/27 13:43:25;;;;;;;8.75;1.30;;;;;;;;;;5072955;28;20028;-78
2021/03/27 13:45:56;;;;;;;4.28;1.00;;;;;;;;;;5071865;28;21685;-78
2021/03/27 13:48:27;;;;;;;7.30;1.10;;;;;;;;;;5070721;28;20150;-78
2021/03/27 13:51:11;;;;;;;3.10;0.97;;;;;;;;;;5071004;28;20371;-78
2021/03/27 13:53:48;;;;;;;6.32;1.70;;;;;;;;;;5072695;28;20021;-78
2021/03/27 13:56:35;;;;;;;6.65;1.40;;;;;;;;;;5071085;28;20112;-78
2021/03/27 13:59:06;;;;;;;5.10;1.08;;;;;;;;;;5071472;28;20031;-79
2021/03/27 14:01:37;;;;;;;5.60;1.00;;;;;;;;;;5072689;28;20456;-78
2021/03/27 14:04:02;;;;;;;8.13;1.60;;;;;;;;;;5072077;28;20032;-78
2021/03/27 14:06:34;;;;;;;7.20;1.40;;;;;;;;;;5071360;28;20069;-78
2021/03/27 14:09:17;;;;;;;4.45;1.33;;;;;;;;;;5071094;28;20016;-78
2021/03/27 14:11:48;;;;;;;6.88;1.50;;;;;;;;;;5060632;28;20436;-78
2021/03/27 14:14:17;;;;;;;9.57;1.63;;;;;;;;;;5071637;28;20376;-78
2021/03/27 14:16:55;;;;;;;9.32;1.20;;;;;;;;;;5072442;28;20008;-78
2021/03/27 14:19:33;;;;;;;8.35;1.58;;;;;;;;;;5071001;28;20020;-78
2021/03/27 14:21:58;;;;;;;6.22;1.02;;;;;;;;;;5071817;28;20024;-78
2021/03/27 14:24:27;;;;;;;11.66;1.80;;;;;;;;;;5070273;28;20028;-78
2021/03/27 14:26:59;;;;;;;8.55;0.95;;;;;;;;;;5071577;28;20033;-78
2021/03/27 14:29:43;;;;;;;13.15;1.45;;;;;;;;;;5067785;28;20491;-78
2021/03/27 14:32:11;;;;;;;6.57;1.15;;;;;;;;;;5065152;28;20021;-78
2021/03/27 14:34:59;;;;;;;7.63;1.33;;;;;;;;;;5067611;28;20028;-79
2021/03/27 14:37:43;;;;;;;11.45;1.80;;;;;;;;;;5069785;28;20086;-78
2021/03/27 14:40:27;;;;;;;8.73;1.38;;;;;;;;;;5069540;28;20056;-80
2021/03/27 14:43:04;;;;;;;7.72;0.70;;;;;;;;;;5070712;28;20555;-79
2021/03/27 14:45:32;;;;;;;9.75;1.25;;;;;;;;;;5070952;28;20317;-79
2021/03/27 14:48:01;;;;;;;9.18;1.20;;;;;;;;;;5071955;28;20021;-78
2021/03/27 14:50:58;;;;;;;9.57;1.55;;;;;;;;;;5070232;28;20024;-78
2021/03/27 14:53:39;;;;;;;8.43;1.33;;;;;;;;;;5048880;28;20040;-78
2021/03/27 14:56:24;;;;;;;5.88;1.30;;;;;;;;;;5071758;28;20387;-79
2021/03/27 14:59:04;;;;;;;6.32;1.15;;;;;;;;;;5071954;28;20016;-79
2021/03/27 15:01:32;;;;;;;10.07;1.27;;;;;;;;;;5067128;28;20020;-79
2021/03/27 15:04:00;;;;;;;6.43;1.30;;;;;;;;;;5070268;28;20020;-79
2021/03/27 15:06:29;;;;;;;6.03;1.17;;;;;;;;;;5072042;28;20053;-79
2021/03/27 15:09:07;;;;;;;9.52;1.45;;;;;;;;;;5067540;28;20061;-78
2021/03/27 15:11:36;;;;;;;6.65;1.70;;;;;;;;;;5064927;28;20489;-79
2021/03/27 15:14:19;;;;;;;7.10;1.10;;;;;;;;;;5070653;28;20031;-79
2021/03/27 15:16:56;;;;;;;7.95;1.30;;;;;;;;;;5066491;28;20024;-79
2021/03/27 15:19:27;;;;;;;8.52;1.40;;;;;;;;;;5067639;28;20033;-79
2021/03/27 15:21:55;;;;;;;7.10;1.00;;;;;;;;;;5068139;28;20020;-77
2021/03/27 15:24:33;;;;;;;10.82;1.45;;;;;;;;;;5070152;28;20024;-77